Time;durP1;ratioP1;P1;durP2;ratioP2;P2;SDS_P1;SDS_P2;PMS_P1;PMS_P2;Temp;Humidity;BMP_temperature;BMP_pressure;BME280_temperature;BME280_humidity;BME280_pressure;Samples;Min_cycle;Max_cycle;Signal;HPM_P1;HPM_P2
2022/07/31 00:00:06;;;;;;;3.83;1.00;;;20.40;94.40;;;;;;5076269;28;20040;-75
2022/07/31 00:02:31;;;;;;;4.10;1.00;;;20.40;94.50;;;;;;5072256;28;20036;-76
2022/07/31 00:04:57;;;;;;;2.13;0.70;;;20.40;94.60;;;;;;5063919;28;20123;-75
2022/07/31 00:07:23;;;;;;;4.72;0.90;;;20.30;94.80;;;;;;5077691;28;20467;-76
2022/07/31 00:09:48;;;;;;;2.95;0.90;;;20.30;95.00;;;;;;5071468;28;20484;-76
2022/07/31 00:12:14;;;;;;;2.53;0.80;;;20.20;95.10;;;;;;5062964;28;20037;-75
2022/07/31 00:14:40;;;;;;;3.38;0.70;;;20.20;95.40;;;;;;5078828;28;20361;-76
2022/07/31 00:17:06;;;;;;;2.42;0.88;;;20.20;95.50;;;;;;5084195;28;20043;-75
2022/07/31 00:19:31;;;;;;;2.25;0.80;;;20.20;95.60;;;;;;5073722;28;20047;-76
2022/07/31 00:21:57;;;;;;;4.30;1.30;;;20.10;95.80;;;;;;5068025;28;20395;-76
2022/07/31 00:24:23;;;;;;;5.68;1.48;;;20.00;96.00;;;;;;5072813;28;20056;-76
2022/07/31 00:26:49;;;;;;;3.38;1.63;;;20.00;96.30;;;;;;5085901;28;20033;-76
2022/07/31 00:29:14;;;;;;;6.00;2.35;;;20.00;96.50;;;;;;5070222;28;20021;-76
2022/07/31 00:31:40;;;;;;;9.68;2.60;;;20.00;96.70;;;;;;5073449;28;20032;-76
2022/07/31 00:34:05;;;;;;;4.80;2.38;;;20.00;96.80;;;;;;5074235;28;20040;-76
2022/07/31 00:36:31;;;;;;;4.15;2.30;;;20.00;97.00;;;;;;5084845;28;20078;-76
2022/07/31 00:38:57;;;;;;;3.85;2.92;;;20.00;97.30;;;;;;5078815;28;20059;-75
2022/07/31 00:41:23;;;;;;;4.25;2.40;;;19.90;97.50;;;;;;5069988;28;20025;-76
2022/07/31 00:43:48;;;;;;;4.20;2.55;;;19.90;97.70;;;;;;5063218;28;20150;-75
2022/07/31 00:46:14;;;;;;;5.00;3.15;;;19.90;98.00;;;;;;5066939;28;20162;-76
2022/07/31 00:48:40;;;;;;;5.10;2.45;;;19.80;98.20;;;;;;5073253;28;20021;-73
2022/07/31 00:51:05;;;;;;;5.82;2.67;;;19.80;98.40;;;;;;5070144;28;20380;-76
2022/07/31 00:53:31;;;;;;;5.72;2.70;;;19.80;98.70;;;;;;5073713;28;20031;-76
2022/07/31 00:55:56;;;;;;;5.50;3.05;;;19.80;98.90;;;;;;5077617;28;20039;-76
2022/07/31 00:58:22;;;;;;;6.07;2.95;;;19.70;99.10;;;;;;5069520;28;20027;-76
2022/07/31 01:00:48;;;;;;;5.68;2.25;;;19.60;99.40;;;;;;5066076;28;20063;-76
2022/07/31 01:03:14;;;;;;;4.63;1.95;;;19.60;99.60;;;;;;5056444;28;20108;-76
2022/07/31 01:05:40;;;;;;;4.25;1.83;;;19.50;99.80;;;;;;5059195;28;20039;-75
2022/07/31 01:08:06;;;;;;;3.78;1.90;;;19.50;99.90;;;;;;5068412;28;20427;-76
2022/07/31 01:10:37;;;;;;;5.85;2.05;;;19.40;99.90;;;;;;5070754;28;20040;-76
2022/07/31 01:13:09;;;;;;;6.05;2.55;;;19.30;99.90;;;;;;5062788;28;20116;-76
2022/07/31 01:15:36;;;;;;;4.65;2.88;;;19.20;99.90;;;;;;5080465;28;20033;-76
2022/07/31 01:18:03;;;;;;;4.20;2.55;;;19.10;99.90;;;;;;5078053;28;20088;-75
2022/07/31 01:20:31;;;;;;;6.28;3.28;;;19.10;99.90;;;;;;5064318;28;20033;-76
2022/07/31 01:23:20;;;;;;;4.05;2.40;;;19.10;99.90;;;;;;5058491;28;20020;-76
2022/07/31 01:25:57;;;;;;;5.35;2.70;;;19.10;99.90;;;;;;5067698;28;20021;-76
2022/07/31 01:28:50;;;;;;;4.40;3.30;;;19.00;99.90;;;;;;5069656;28;20464;-76
2022/07/31 01:31:24;;;;;;;4.25;2.75;;;19.00;99.90;;;;;;5069663;28;20025;-76
2022/07/31 01:34:02;;;;;;;6.63;3.25;;;18.90;99.90;;;;;;5065773;28;20028;-76
2022/07/31 01:36:33;;;;;;;5.38;2.65;;;18.90;99.90;;;;;;5059363;28;20037;-76
2022/07/31 01:39:00;;;;;;;4.65;2.45;;;18.90;99.90;;;;;;5066149;28;20057;-76
2022/07/31 01:41:32;;;;;;;4.35;2.70;;;18.90;99.90;;;;;;5068722;28;20032;-76
2022/07/31 01:43:59;;;;;;;4.07;2.90;;;18.90;99.90;;;;;;5058175;28;20540;-76
2022/07/31 01:46:27;;;;;;;5.13;2.70;;;18.90;99.90;;;;;;5069258;28;20108;-75
2022/07/31 01:48:56;;;;;;;4.03;2.22;;;18.80;99.90;;;;;;5068504;28;20530;-75
2022/07/31 01:51:24;;;;;;;4.53;3.00;;;18.80;99.90;;;;;;5072318;28;20035;-76
2022/07/31 01:53:52;;;;;;;5.63;3.13;;;18.80;99.90;;;;;;5067420;28;20468;-76
2022/07/31 01:56:19;;;;;;;4.85;2.75;;;18.80;99.90;;;;;;5066897;28;20025;-76
2022/07/31 01:58:47;;;;;;;3.67;2.72;;;18.80;99.90;;;;;;5063728;28;20446;-76
2022/07/31 02:01:13;;;;;;;4.78;2.92;;;18.70;99.90;;;;;;5080661;28;20025;-76
2022/07/31 02:03:40;;;;;;;5.15;2.83;;;18.70;99.90;;;;;;5076813;28;20422;-76
2022/07/31 02:06:07;;;;;;;5.78;3.08;;;18.70;99.90;;;;;;5072564;28;20391;-76
2022/07/31 02:08:33;;;;;;;3.90;3.03;;;18.70;99.90;;;;;;5084029;28;20081;-75
2022/07/31 02:11:00;;;;;;;7.43;4.38;;;18.60;99.90;;;;;;5064865;28;20658;-76
2022/07/31 02:13:27;;;;;;;6.18;3.83;;;18.70;99.90;;;;;;5075419;28;20531;-76
2022/07/31 02:15:55;;;;;;;6.53;4.57;;;18.70;99.90;;;;;;5069394;28;20024;-76
2022/07/31 02:18:21;;;;;;;6.55;5.03;;;18.70;99.90;;;;;;5075046;28;20106;-76
2022/07/31 02:20:50;;;;;;;8.25;5.95;;;18.70;99.90;;;;;;5070392;28;20021;-76
2022/07/31 02:23:17;;;;;;;7.95;6.45;;;18.80;99.90;;;;;;5073867;28;20024;-76
2022/07/31 02:25:43;;;;;;;11.52;7.20;;;18.80;99.90;;;;;;5071797;28;20484;-76
2022/07/31 02:28:14;;;;;;;11.07;6.50;;;18.80;99.90;;;;;;5062675;28;20591;-76
2022/07/31 02:30:42;;;;;;;8.13;7.00;;;18.80;99.90;;;;;;5065946;28;20119;-76
2022/07/31 02:33:12;;;;;;;10.32;7.15;;;18.90;99.90;;;;;;5074755;28;20036;-76
2022/07/31 02:35:39;;;;;;;10.75;7.38;;;18.80;99.90;;;;;;5062308;28;20029;-76
2022/07/31 02:38:07;;;;;;;9.20;7.40;;;18.90;99.90;;;;;;5088112;28;20036;-75
2022/07/31 02:40:34;;;;;;;9.27;7.07;;;18.90;99.90;;;;;;5076191;28;20040;-76
2022/07/31 02:42:59;;;;;;;12.98;7.85;;;18.90;99.90;;;;;;5062710;28;20119;-76
2022/07/31 02:45:25;;;;;;;9.60;7.80;;;18.90;99.90;;;;;;5069780;28;20111;-76
2022/07/31 02:47:51;;;;;;;10.15;8.75;;;18.80;99.90;;;;;;5063211;28;20029;-76
2022/07/31 02:50:18;;;;;;;8.57;7.32;;;18.90;99.90;;;;;;5071217;28;20093;-76
2022/07/31 02:52:43;;;;;;;11.07;7.78;;;18.80;99.90;;;;;;5060763;28;20040;-76
2022/07/31 02:55:09;;;;;;;9.43;8.30;;;18.80;99.90;;;;;;5071574;28;20032;-76
2022/07/31 02:57:35;;;;;;;10.88;8.25;;;18.80;99.90;;;;;;5088181;28;20035;-76
2022/07/31 03:00:01;;;;;;;11.80;8.32;;;18.80;99.90;;;;;;5089214;28;20035;-76
2022/07/31 03:02:26;;;;;;;10.23;8.20;;;18.70;99.90;;;;;;5066702;28;20029;-76
2022/07/31 03:04:52;;;;;;;12.02;8.88;;;18.70;99.90;;;;;;5069682;28;20063;-76
2022/07/31 03:07:17;;;;;;;10.68;8.70;;;18.70;99.90;;;;;;5076611;28;20020;-76
2022/07/31 03:09:43;;;;;;;12.75;8.82;;;18.70;99.90;;;;;;5068275;28;20024;-76
2022/07/31 03:12:08;;;;;;;12.13;8.90;;;18.70;99.90;;;;;;5070372;28;20028;-76
2022/07/31 03:14:35;;;;;;;10.23;7.57;;;18.60;99.90;;;;;;5068566;28;20032;-76
2022/07/31 03:17:03;;;;;;;11.52;8.55;;;18.60;99.90;;;;;;5067720;28;20028;-76
2022/07/31 03:19:31;;;;;;;11.85;7.82;;;18.60;99.90;;;;;;5054757;28;20033;-76
2022/07/31 03:21:58;;;;;;;10.15;7.82;;;18.60;99.90;;;;;;5069594;28;20024;-76
2022/07/31 03:24:25;;;;;;;9.73;7.47;;;18.60;99.90;;;;;;5071931;28;20392;-76
2022/07/31 03:26:51;;;;;;;12.48;7.68;;;18.60;99.90;;;;;;5080200;28;20055;-76
2022/07/31 03:29:16;;;;;;;9.73;7.03;;;18.60;99.90;;;;;;5091071;28;20067;-76
2022/07/31 03:31:43;;;;;;;10.55;7.35;;;18.50;99.90;;;;;;5085548;28;20028;-76
2022/07/31 03:34:10;;;;;;;10.70;7.13;;;18.50;99.90;;;;;;5077243;28;20589;-76
2022/07/31 03:36:36;;;;;;;9.25;6.45;;;18.50;99.90;;;;;;5059613;28;20047;-76
2022/07/31 03:39:02;;;;;;;9.77;7.25;;;18.50;99.90;;;;;;5077373;28;20501;-76
2022/07/31 03:41:27;;;;;;;11.63;6.80;;;18.50;99.90;;;;;;5051149;28;20079;-76
2022/07/31 03:43:53;;;;;;;9.30;6.60;;;18.50;99.90;;;;;;5057404;28;20085;-76
2022/07/31 03:46:20;;;;;;;11.82;6.88;;;18.50;99.90;;;;;;5065141;28;20438;-76
2022/07/31 03:48:50;;;;;;;10.15;7.88;;;18.40;99.90;;;;;;5073903;28;20056;-75
2022/07/31 03:51:16;;;;;;;15.88;8.60;;;18.40;99.90;;;;;;5072567;28;20039;-76
2022/07/31 03:53:42;;;;;;;10.73;6.93;;;18.50;99.90;;;;;;5074362;28;20484;-76
2022/07/31 03:56:08;;;;;;;10.68;7.22;;;18.50;99.90;;;;;;5072917;28;20029;-75
2022/07/31 03:58:34;;;;;;;11.80;6.80;;;18.40;99.90;;;;;;5085358;28;20049;-76
2022/07/31 04:01:00;;;;;;;14.00;7.53;;;18.40;99.90;;;;;;5059083;28;20569;-75
2022/07/31 04:03:30;;;;;;;11.02;7.82;;;18.40;99.90;;;;;;5066783;28;20032;-76
2022/07/31 04:05:55;;;;;;;12.85;8.18;;;18.40;99.90;;;;;;5064070;28;20431;-76
2022/07/31 04:08:21;;;;;;;10.18;7.35;;;18.40;99.90;;;;;;5078756;28;20024;-74
2022/07/31 04:10:46;;;;;;;11.93;8.10;;;18.40;99.90;;;;;;5071822;28;20392;-75
2022/07/31 04:13:12;;;;;;;14.10;8.20;;;18.40;99.90;;;;;;5057082;28;20028;-75
2022/07/31 04:15:37;;;;;;;14.23;9.45;;;18.40;99.90;;;;;;5071756;28;20040;-75
2022/07/31 04:18:03;;;;;;;13.80;9.75;;;18.40;99.90;;;;;;5085648;28;20432;-74
2022/07/31 04:20:28;;;;;;;13.25;9.55;;;18.40;99.90;;;;;;5080842;28;20035;-74
2022/07/31 04:22:54;;;;;;;13.57;9.85;;;18.40;99.90;;;;;;5073400;28;20039;-74
2022/07/31 04:25:19;;;;;;;12.85;10.75;;;18.50;99.90;;;;;;5076754;28;20108;-74
2022/07/31 04:27:45;;;;;;;16.08;10.40;;;18.50;99.90;;;;;;5073239;28;20093;-75
2022/07/31 04:30:11;;;;;;;13.18;11.45;;;18.50;99.90;;;;;;5075464;28;20020;-75
2022/07/31 04:32:37;;;;;;;20.52;12.52;;;18.50;99.90;;;;;;5073228;28;20028;-74
2022/07/31 04:35:04;;;;;;;15.20;11.43;;;18.50;99.90;;;;;;5070309;28;20108;-74
2022/07/31 04:37:29;;;;;;;17.60;11.88;;;18.60;99.90;;;;;;5069753;28;20484;-75
2022/07/31 04:39:55;;;;;;;15.32;10.60;;;18.60;99.90;;;;;;5056937;28;20114;-75
2022/07/31 04:42:20;;;;;;;12.48;10.80;;;18.60;99.90;;;;;;5066429;28;20025;-74
2022/07/31 04:44:46;;;;;;;12.60;11.23;;;18.60;99.90;;;;;;5063435;28;20033;-75
2022/07/31 04:47:12;;;;;;;13.68;10.77;;;18.60;99.90;;;;;;5067462;28;20024;-74
2022/07/31 04:49:38;;;;;;;12.10;10.43;;;18.70;99.90;;;;;;5068597;28;20041;-74
2022/07/31 04:52:05;;;;;;;13.10;10.48;;;18.60;99.90;;;;;;5064166;28;20057;-75
2022/07/31 04:54:32;;;;;;;16.73;11.40;;;18.70;99.90;;;;;;5070820;28;20028;-74
2022/07/31 04:56:58;;;;;;;12.18;10.02;;;18.70;99.90;;;;;;5067667;28;20035;-75
2022/07/31 04:59:23;;;;;;;13.18;9.68;;;18.80;99.90;;;;;;5053818;28;20033;-74
2022/07/31 05:01:50;;;;;;;14.43;9.73;;;18.80;99.90;;;;;;5068867;28;20039;-75
2022/07/31 05:04:16;;;;;;;15.57;9.93;;;18.90;99.90;;;;;;5070669;28;20037;-75
2022/07/31 05:06:43;;;;;;;12.50;9.57;;;19.00;99.90;;;;;;5066930;28;20476;-75
2022/07/31 05:09:14;;;;;;;13.13;8.45;;;19.10;99.90;;;;;;5071506;28;20020;-75
2022/07/31 05:11:42;;;;;;;8.85;7.88;;;19.10;99.90;;;;;;5065723;28;20440;-75
2022/07/31 05:14:10;;;;;;;12.75;8.13;;;19.20;99.90;;;;;;5071608;28;20029;-75
2022/07/31 05:16:37;;;;;;;10.50;8.85;;;19.30;99.90;;;;;;5071438;28;20033;-75
2022/07/31 05:19:04;;;;;;;11.82;8.55;;;19.30;99.90;;;;;;5071566;28;20044;-75
2022/07/31 05:21:31;;;;;;;11.82;8.48;;;19.30;99.90;;;;;;5058675;28;20128;-75
2022/07/31 05:23:58;;;;;;;12.63;8.88;;;19.30;99.90;;;;;;5065008;28;20045;-75
2022/07/31 05:26:24;;;;;;;10.63;8.43;;;19.40;99.90;;;;;;5071522;28;20021;-75
2022/07/31 05:28:51;;;;;;;10.57;8.88;;;19.30;99.90;;;;;;5071522;28;20514;-75
2022/07/31 05:31:17;;;;;;;13.20;9.13;;;19.30;99.90;;;;;;5071112;28;20027;-75
2022/07/31 05:33:44;;;;;;;11.40;8.05;;;19.30;99.90;;;;;;5070170;28;20021;-76
2022/07/31 05:36:10;;;;;;;11.65;9.38;;;19.30;99.90;;;;;;5064389;28;20028;-75
2022/07/31 05:38:36;;;;;;;15.80;10.93;;;19.20;99.90;;;;;;5069540;28;20071;-76
2022/07/31 05:41:02;;;;;;;13.60;10.48;;;19.20;99.90;;;;;;5070925;28;20456;-75
2022/07/31 05:43:28;;;;;;;14.85;11.32;;;19.20;99.90;;;;;;5070948;28;20036;-75
2022/07/31 05:45:54;;;;;;;13.27;11.00;;;19.20;99.90;;;;;;5065662;28;20025;-75
2022/07/31 05:48:19;;;;;;;16.00;12.75;;;19.10;99.90;;;;;;5074131;28;20073;-75
2022/07/31 05:50:47;;;;;;;13.45;12.02;;;19.10;99.90;;;;;;5060501;28;20028;-75
2022/07/31 05:53:16;;;;;;;16.15;11.82;;;19.10;99.90;;;;;;5070967;28;20047;-75
2022/07/31 05:55:46;;;;;;;14.55;12.13;;;19.10;99.90;;;;;;5072276;28;20500;-76
2022/07/31 05:58:12;;;;;;;14.10;12.55;;;19.20;99.90;;;;;;5062746;28;20025;-76
2022/07/31 06:00:38;;;;;;;15.35;12.15;;;19.10;99.90;;;;;;5058110;28;20055;-76
2022/07/31 06:03:04;;;;;;;15.98;12.52;;;19.10;99.90;;;;;;5077151;28;20028;-76
2022/07/31 06:05:31;;;;;;;15.95;11.38;;;19.10;99.90;;;;;;5070217;28;20024;-76
2022/07/31 06:07:59;;;;;;;17.80;13.35;;;19.10;99.90;;;;;;5065064;28;20290;-76
2022/07/31 06:10:26;;;;;;;19.05;12.45;;;19.10;99.90;;;;;;5077497;28;20482;-76
2022/07/31 06:12:52;;;;;;;14.77;12.63;;;19.10;99.90;;;;;;5071168;28;20029;-76
2022/07/31 06:15:18;;;;;;;16.05;12.65;;;19.10;99.90;;;;;;5070165;28;20028;-75
2022/07/31 06:17:44;;;;;;;18.35;13.13;;;19.10;99.90;;;;;;5063724;28;20626;-76
2022/07/31 06:20:11;;;;;;;15.52;11.80;;;19.10;99.90;;;;;;5074836;28;20040;-76
2022/07/31 06:22:38;;;;;;;16.42;11.40;;;19.10;99.90;;;;;;5065557;28;20029;-76
2022/07/31 06:25:05;;;;;;;13.68;11.43;;;19.10;99.90;;;;;;5067697;28;20491;-76
2022/07/31 06:27:31;;;;;;;16.45;10.82;;;19.20;99.90;;;;;;5058414;28;20021;-76
2022/07/31 06:29:56;;;;;;;13.77;10.60;;;19.20;99.90;;;;;;5079688;28;20090;-76
2022/07/31 06:32:22;;;;;;;12.52;9.98;;;19.20;99.90;;;;;;5068759;28;20025;-76
2022/07/31 06:34:48;;;;;;;13.27;10.23;;;19.30;99.90;;;;;;5071153;28;20120;-77
2022/07/31 06:37:13;;;;;;;15.63;9.88;;;19.40;99.90;;;;;;5071447;28;20024;-76
2022/07/31 06:39:39;;;;;;;18.63;9.98;;;19.40;99.90;;;;;;5086000;28;20062;-76
2022/07/31 06:42:05;;;;;;;11.55;9.15;;;19.40;99.90;;;;;;5070489;28;20440;-74
2022/07/31 06:44:32;;;;;;;12.00;8.93;;;19.50;99.90;;;;;;5060670;28;20033;-76
2022/07/31 06:46:58;;;;;;;10.43;8.13;;;19.60;99.90;;;;;;5077406;28;20032;-75
2022/07/31 06:49:24;;;;;;;13.20;7.95;;;19.60;99.90;;;;;;5073188;28;20060;-77
2022/07/31 06:51:50;;;;;;;9.88;7.65;;;19.60;99.90;;;;;;5063041;28;20042;-76
2022/07/31 06:54:16;;;;;;;11.77;8.30;;;19.70;99.90;;;;;;5070549;28;20086;-76
2022/07/31 06:56:42;;;;;;;8.07;6.90;;;19.70;99.90;;;;;;5057072;28;20057;-78
2022/07/31 06:59:08;;;;;;;9.98;6.93;;;19.80;99.90;;;;;;5053600;28;20075;-77
2022/07/31 07:01:33;;;;;;;8.30;7.40;;;19.80;99.90;;;;;;5078097;28;20561;-76
2022/07/31 07:03:59;;;;;;;9.98;7.32;;;19.90;99.90;;;;;;5069080;28;20036;-76
2022/07/31 07:06:25;;;;;;;8.60;6.47;;;20.00;99.90;;;;;;5062923;28;20059;-77
2022/07/31 07:08:52;;;;;;;9.00;6.47;;;20.10;99.90;;;;;;5068543;28;20033;-77
2022/07/31 07:11:18;;;;;;;9.63;6.60;;;20.10;99.90;;;;;;5066623;28;20060;-77
2022/07/31 07:13:44;;;;;;;10.35;7.72;;;20.10;99.90;;;;;;5051325;28;20094;-77
2022/07/31 07:16:10;;;;;;;10.50;6.65;;;20.20;99.90;;;;;;5063969;28;20021;-77
2022/07/31 07:18:36;;;;;;;10.38;6.45;;;20.20;99.90;;;;;;5064991;28;20078;-76
2022/07/31 07:21:02;;;;;;;8.85;5.85;;;20.30;99.90;;;;;;5064774;28;20444;-76
2022/07/31 07:23:27;;;;;;;12.75;6.18;;;20.30;99.90;;;;;;5070913;28;20362;-76
2022/07/31 07:25:53;;;;;;;10.40;6.55;;;20.30;99.90;;;;;;5068482;28;20032;-76
2022/07/31 07:28:18;;;;;;;11.63;6.88;;;20.30;99.90;;;;;;5059427;28;20037;-76
2022/07/31 07:30:44;;;;;;;8.77;6.10;;;20.30;99.90;;;;;;5061750;28;20444;-76
2022/07/31 07:33:09;;;;;;;10.38;6.80;;;20.30;99.90;;;;;;5079760;28;20155;-77
2022/07/31 07:35:35;;;;;;;14.20;6.35;;;20.20;99.90;;;;;;5076900;28;20111;-76
2022/07/31 07:38:01;;;;;;;12.57;7.35;;;20.20;99.90;;;;;;5062747;28;20104;-76
2022/07/31 07:40:27;;;;;;;10.15;6.35;;;20.30;99.90;;;;;;5073074;28;20040;-76
2022/07/31 07:42:53;;;;;;;10.18;6.72;;;20.30;99.90;;;;;;5071267;28;20020;-76
2022/07/31 07:45:18;;;;;;;10.90;7.28;;;20.30;99.90;;;;;;5070282;28;20090;-77
2022/07/31 07:47:44;;;;;;;7.72;6.38;;;20.50;99.90;;;;;;5073310;28;20036;-76
2022/07/31 07:50:11;;;;;;;9.50;6.97;;;20.50;99.90;;;;;;5074534;28;20016;-77
2022/07/31 07:52:37;;;;;;;9.73;6.93;;;20.70;99.90;;;;;;5074098;28;20503;-76
2022/07/31 07:55:04;;;;;;;13.25;7.80;;;20.80;99.90;;;;;;5068768;28;20024;-76
2022/07/31 07:57:30;;;;;;;9.23;7.22;;;20.80;99.90;;;;;;5073743;28;20029;-76
2022/07/31 07:59:59;;;;;;;14.73;7.55;;;21.00;99.90;;;;;;5062362;28;20059;-77
2022/07/31 08:02:24;;;;;;;11.07;7.47;;;21.10;99.90;;;;;;5074216;28;20021;-77
2022/07/31 08:04:50;;;;;;;13.82;8.00;;;21.20;99.90;;;;;;5072663;28;20086;-76
2022/07/31 08:07:16;;;;;;;11.85;8.15;;;21.30;99.90;;;;;;5068018;28;20107;-77
2022/07/31 08:09:42;;;;;;;16.08;7.72;;;21.40;99.90;;;;;;5057203;28;20108;-77
2022/07/31 08:12:07;;;;;;;11.25;7.70;;;21.40;99.90;;;;;;5069115;28;20059;-77
2022/07/31 08:14:33;;;;;;;12.20;8.30;;;21.50;99.90;;;;;;5064255;28;20036;-77
2022/07/31 08:16:59;;;;;;;11.77;8.00;;;21.60;99.90;;;;;;5073211;28;20025;-77
2022/07/31 08:19:24;;;;;;;11.18;7.07;;;21.70;99.90;;;;;;5069021;28;20392;-76
2022/07/31 08:21:50;;;;;;;12.32;7.35;;;21.80;99.90;;;;;;5061902;28;20025;-76
2022/07/31 08:24:16;;;;;;;11.77;7.80;;;21.90;99.90;;;;;;5066628;28;20032;-76
2022/07/31 08:29:27;;;;;;;15.20;7.50;;;22.20;99.90;;;;;;5059746;28;20080;-76
2022/07/31 08:31:52;;;;;;;9.18;6.70;;;22.30;99.90;;;;;;5066707;28;20017;-77
2022/07/31 08:34:18;;;;;;;10.88;7.03;;;22.40;99.90;;;;;;5066084;28;20082;-77
2022/07/31 08:36:44;;;;;;;8.23;6.32;;;22.50;99.90;;;;;;5069903;28;20693;-76
2022/07/31 08:39:09;;;;;;;10.23;7.00;;;22.70;99.90;;;;;;5070549;28;20400;-76
2022/07/31 08:41:39;;;;;;;10.13;6.97;;;22.90;99.90;;;;;;5066098;28;20029;-77
2022/07/31 08:44:05;;;;;;;11.07;6.53;;;23.00;99.90;;;;;;5064042;28;20036;-76
2022/07/31 08:46:36;;;;;;;11.43;6.82;;;23.20;99.90;;;;;;5075876;28;20025;-76
2022/07/31 08:49:02;;;;;;;12.48;7.53;;;23.40;99.90;;;;;;5060901;28;20468;-76
2022/07/31 08:51:38;;;;;;;12.95;7.65;;;23.50;99.90;;;;;;5072325;28;20029;-76
2022/07/31 08:54:11;;;;;;;10.45;6.88;;;23.50;99.90;;;;;;5070150;28;20078;-76
2022/07/31 08:56:37;;;;;;;8.77;6.78;;;23.50;99.90;;;;;;5056319;28;20059;-76
2022/07/31 08:59:04;;;;;;;11.52;6.75;;;23.70;99.90;;;;;;5063094;28;20029;-76
2022/07/31 09:01:32;;;;;;;10.05;7.50;;;23.80;99.90;;;;;;5067389;28;20024;-76
2022/07/31 09:03:58;;;;;;;12.25;7.95;;;24.00;99.90;;;;;;5059986;28;20040;-75
2022/07/31 09:06:24;;;;;;;11.85;7.15;;;24.10;99.90;;;;;;5070422;28;20034;-76
2022/07/31 09:08:49;;;;;;;9.63;6.72;;;24.10;99.90;;;;;;5064433;28;20028;-77
2022/07/31 09:11:17;;;;;;;10.07;7.43;;;24.20;99.90;;;;;;5042802;28;20384;-77
2022/07/31 09:14:00;;;;;;;12.00;7.25;;;24.20;99.90;;;;;;5040917;28;20536;-77
2022/07/31 09:16:26;;;;;;;9.23;6.70;;;24.20;99.90;;;;;;5046927;28;20852;-76
2022/07/31 09:19:03;;;;;;;11.65;8.35;;;24.10;99.90;;;;;;5060729;28;20090;-77
2022/07/31 09:21:43;;;;;;;12.23;7.45;;;24.10;99.90;;;;;;5061307;28;20029;-77
2022/07/31 09:24:10;;;;;;;13.02;8.27;;;23.90;99.90;;;;;;5071083;28;20024;-76
2022/07/31 09:26:39;;;;;;;9.63;7.47;;;23.80;99.90;;;;;;5072231;28;20027;-76
2022/07/31 09:29:10;;;;;;;11.13;8.32;;;23.80;99.90;;;;;;5067344;28;20127;-76
2022/07/31 09:31:36;;;;;;;12.40;8.07;;;23.80;99.90;;;;;;5062459;28;20027;-77
2022/07/31 09:34:02;;;;;;;11.90;7.82;;;23.60;99.90;;;;;;5073206;28;20437;-76
2022/07/31 09:36:28;;;;;;;15.25;8.55;;;23.50;99.90;;;;;;5073936;28;20520;-75
2022/07/31 09:38:58;;;;;;;11.07;8.35;;;23.50;99.90;;;;;;5061817;28;20080;-77
2022/07/31 09:41:24;;;;;;;12.63;9.13;;;23.40;99.90;;;;;;5065619;28;20019;-77
2022/07/31 09:43:54;;;;;;;11.85;8.80;;;23.40;99.90;;;;;;5068785;28;20115;-77
2022/07/31 09:46:20;;;;;;;15.63;10.77;;;23.40;99.90;;;;;;5068618;28;20031;-75
2022/07/31 09:48:54;;;;;;;15.70;11.13;;;23.40;99.90;;;;;;5075215;28;20032;-76
2022/07/31 09:51:20;;;;;;;16.92;11.75;;;23.40;99.90;;;;;;5067116;28;20043;-75
2022/07/31 09:53:56;;;;;;;16.00;12.00;;;23.20;99.90;;;;;;5066092;28;20395;-75
2022/07/31 09:56:32;;;;;;;15.88;12.68;;;23.00;99.90;;;;;;5064548;28;20066;-76
2022/07/31 09:58:58;;;;;;;16.48;13.77;;;22.80;99.90;;;;;;5067293;28;20434;-76
2022/07/31 10:01:25;;;;;;;15.55;13.60;;;22.70;99.90;;;;;;5084545;28;20020;-77
2022/07/31 10:03:52;;;;;;;18.15;14.20;;;22.70;99.90;;;;;;5086841;28;20161;-77
2022/07/31 10:06:19;;;;;;;15.93;14.10;;;22.70;99.90;;;;;;5066056;28;20550;-76
2022/07/31 10:08:46;;;;;;;16.17;14.02;;;22.80;99.90;;;;;;5066732;28;20115;-76
2022/07/31 10:11:18;;;;;;;16.95;14.13;;;22.80;99.90;;;;;;5055469;28;20036;-75
2022/07/31 10:13:48;;;;;;;13.23;11.63;;;22.80;99.90;;;;;;5071157;28;20128;-76
2022/07/31 10:16:14;;;;;;;15.80;12.70;;;22.90;99.90;;;;;;5073910;28;20495;-75
2022/07/31 10:18:46;;;;;;;16.08;12.52;;;23.00;99.90;;;;;;5066289;28;20400;-76
2022/07/31 10:21:14;;;;;;;15.65;12.98;;;23.00;99.90;;;;;;5062251;28;20032;-75
2022/07/31 10:23:42;;;;;;;14.02;12.30;;;23.10;99.90;;;;;;5069732;28;20059;-77
2022/07/31 10:26:09;;;;;;;16.75;12.85;;;23.10;99.90;;;;;;5055700;28;20421;-74
2022/07/31 10:28:40;;;;;;;14.57;12.07;;;23.20;99.90;;;;;;5061358;28;20111;-74
2022/07/31 10:31:06;;;;;;;13.32;11.93;;;23.20;99.90;;;;;;5068326;28;20024;-76
2022/07/31 10:33:33;;;;;;;15.73;13.27;;;23.30;99.90;;;;;;5063140;28;20057;-76
2022/07/31 10:36:11;;;;;;;13.02;11.73;;;23.40;99.90;;;;;;5063640;28;20036;-76
2022/07/31 10:38:41;;;;;;;16.45;13.32;;;23.60;99.90;;;;;;5066458;28;20053;-75
2022/07/31 10:41:16;;;;;;;15.07;12.10;;;23.80;99.90;;;;;;5079509;28;20024;-75
2022/07/31 10:43:55;;;;;;;16.58;12.30;;;23.90;99.90;;;;;;5071282;28;20028;-75
2022/07/31 10:46:31;;;;;;;13.38;11.95;;;23.90;99.90;;;;;;5068976;28;20017;-75
2022/07/31 10:48:57;;;;;;;12.18;10.88;;;24.00;99.90;;;;;;5066615;28;20028;-76
2022/07/31 10:51:23;;;;;;;10.57;9.13;;;24.00;99.90;;;;;;5062169;28;20475;-76
2022/07/31 10:53:57;;;;;;;11.23;9.65;;;24.20;99.90;;;;;;5057220;28;20955;-77
2022/07/31 10:56:23;;;;;;;9.60;8.65;;;24.30;99.90;;;;;;5070674;28;20028;-75
2022/07/31 10:58:58;;;;;;;11.25;9.20;;;24.40;99.90;;;;;;5070278;28;20118;-75
2022/07/31 11:01:25;;;;;;;12.05;9.48;;;24.50;99.90;;;;;;5067036;28;20025;-76
2022/07/31 11:04:00;;;;;;;11.05;9.07;;;24.60;99.90;;;;;;5067007;28;20082;-75
2022/07/31 11:06:36;;;;;;;9.52;8.63;;;24.60;99.90;;;;;;5068305;28;20106;-76
2022/07/31 11:09:01;;;;;;;9.63;8.60;;;24.50;99.90;;;;;;5068763;28;20017;-75
2022/07/31 11:11:33;;;;;;;10.50;8.77;;;24.50;99.90;;;;;;5064565;28;20021;-75
2022/07/31 11:13:59;;;;;;;9.35;8.15;;;24.50;99.90;;;;;;5062043;28;20029;-75
2022/07/31 11:16:25;;;;;;;12.00;9.20;;;24.40;99.90;;;;;;5066207;28;20048;-76
2022/07/31 11:19:17;;;;;;;10.95;7.93;;;24.40;99.90;;;;;;5061316;28;20032;-77
2022/07/31 11:21:43;;;;;;;8.13;7.32;;;24.40;99.90;;;;;;5072541;28;20024;-75
2022/07/31 11:24:20;;;;;;;8.85;6.93;;;24.40;99.90;;;;;;5067940;28;20031;-76
2022/07/31 11:26:50;;;;;;;8.15;7.03;;;24.40;99.90;;;;;;5071040;28;20017;-76
2022/07/31 11:29:34;;;;;;;8.68;7.78;;;24.40;99.90;;;;;;5065385;28;20027;-77
2022/07/31 11:32:20;;;;;;;7.75;7.03;;;24.20;99.90;;;;;;5065884;28;20021;-76
2022/07/31 11:34:45;;;;;;;8.05;6.60;;;24.20;99.90;;;;;;5068868;28;20032;-76
2022/07/31 11:37:20;;;;;;;10.90;6.85;;;24.20;99.90;;;;;;5066900;28;20365;-75
2022/07/31 11:39:46;;;;;;;8.13;6.65;;;24.20;99.90;;;;;;5067842;28;20052;-76
2022/07/31 11:42:12;;;;;;;7.57;6.38;;;24.20;99.90;;;;;;5067601;28;20033;-76
2022/07/31 11:44:38;;;;;;;8.82;6.10;;;24.20;99.90;;;;;;5070486;28;20099;-75
2022/07/31 11:47:04;;;;;;;6.88;5.20;;;24.30;99.90;;;;;;5068521;28;20391;-76
2022/07/31 11:49:34;;;;;;;6.13;4.90;;;24.40;99.90;;;;;;5067830;28;20021;-75
2022/07/31 11:52:00;;;;;;;8.23;5.65;;;24.60;99.90;;;;;;5068297;28;20024;-77
2022/07/31 11:54:26;;;;;;;6.85;5.10;;;24.70;99.90;;;;;;5067392;28;20048;-76
2022/07/31 11:56:56;;;;;;;7.00;4.72;;;24.80;99.90;;;;;;5068502;28;20511;-76
2022/07/31 11:59:32;;;;;;;6.32;3.85;;;24.80;99.90;;;;;;5065122;28;20044;-75
2022/07/31 12:02:05;;;;;;;4.25;3.83;;;24.90;99.90;;;;;;5066046;28;20031;-76
2022/07/31 12:04:35;;;;;;;3.40;3.10;;;24.90;99.60;;;;;;5066209;28;20020;-76
2022/07/31 12:07:01;;;;;;;4.18;2.75;;;25.10;99.60;;;;;;5064494;28;20052;-75
2022/07/31 12:09:27;;;;;;;4.03;3.08;;;25.20;99.20;;;;;;5066094;28;21310;-75
2022/07/31 12:11:53;;;;;;;5.57;3.35;;;25.30;98.80;;;;;;5066897;28;20479;-75
2022/07/31 12:14:31;;;;;;;5.97;3.45;;;25.20;98.50;;;;;;5069968;28;20056;-76
2022/07/31 12:16:58;;;;;;;5.10;3.70;;;25.10;98.40;;;;;;5063172;28;20033;-76
2022/07/31 12:19:28;;;;;;;5.32;3.28;;;24.90;98.30;;;;;;5066793;28;20480;-78
2022/07/31 12:21:54;;;;;;;5.22;3.33;;;24.90;98.50;;;;;;5065323;28;20036;-76
2022/07/31 12:24:19;;;;;;;5.32;3.30;;;24.80;98.70;;;;;;5067357;28;20380;-75
2022/07/31 12:26:53;;;;;;;5.53;3.63;;;24.80;98.80;;;;;;5068057;28;20043;-75
2022/07/31 12:29:29;;;;;;;6.75;3.70;;;24.80;98.80;;;;;;5066240;28;20036;-76
2022/07/31 12:31:56;;;;;;;5.32;3.58;;;24.70;98.70;;;;;;5066858;28;20487;-75
2022/07/31 12:34:30;;;;;;;5.72;3.85;;;24.70;98.80;;;;;;5066742;28;20263;-75
2022/07/31 12:37:14;;;;;;;4.60;2.88;;;24.80;98.80;;;;;;5063849;28;20357;-78
2022/07/31 12:39:52;;;;;;;3.55;3.22;;;25.00;98.80;;;;;;5065019;28;20047;-75
2022/07/31 12:42:35;;;;;;;4.20;3.55;;;25.10;98.40;;;;;;5068891;28;20024;-76